Time;durP1;ratioP1;P1;durP2;ratioP2;P2;SDS_P1;SDS_P2;PMS_P1;PMS_P2;Temp;Humidity;BMP_temperature;BMP_pressure;BME280_temperature;BME280_humidity;BME280_pressure;Samples;Min_cycle;Max_cycle;Signal;HPM_P1;HPM_P2
2023/04/28 00:01:35;;;;;;;2.72;0.60;;;7.70;66.80;;;;;;4936859;29;20043;-87
2023/04/28 00:04:04;;;;;;;0.10;0.10;;;7.70;74.00;;;;;;4919716;29;20075;-86
2023/04/28 00:06:29;;;;;;;1.55;0.43;;;7.70;63.40;;;;;;4919438;29;20560;-86
2023/04/28 00:08:58;;;;;;;0.10;0.00;;;7.70;73.50;;;;;;4919350;29;20142;-87
2023/04/28 00:11:24;;;;;;;1.65;0.95;;;7.70;73.30;;;;;;4919978;29;20048;-86
2023/04/28 00:14:07;;;;;;;0.45;0.45;;;7.70;73.00;;;;;;4919592;29;20406;-86
2023/04/28 00:16:35;;;;;;;0.00;0.00;;;7.70;74.30;;;;;;4888494;29;20492;-86
2023/04/28 00:19:06;;;;;;;0.40;0.20;;;7.60;70.20;;;;;;4903997;29;20051;-86
2023/04/28 00:21:34;;;;;;;1.00;0.05;;;7.60;69.50;;;;;;4920123;29;20082;-86
2023/04/28 00:24:03;;;;;;;0.00;0.00;;;7.60;72.70;;;;;;4940028;29;20051;-87
2023/04/28 00:26:36;;;;;;;0.98;0.22;;;7.60;72.40;;;;;;4923128;29;20044;-87
2023/04/28 00:29:04;;;;;;;0.00;0.00;;;7.60;69.80;;;;;;4939079;29;20082;-86
2023/04/28 00:31:32;;;;;;;2.22;0.50;;;7.50;71.40;;;;;;4938926;29;20535;-86
2023/04/28 00:34:05;;;;;;;0.30;0.10;;;7.50;72.90;;;;;;4923922;29;20059;-86
2023/04/28 00:36:32;;;;;;;0.22;0.22;;;7.50;68.00;;;;;;4922964;29;20051;-86
2023/04/28 00:39:05;;;;;;;0.10;0.10;;;7.50;71.50;;;;;;4923101;29;20075;-86
2023/04/28 00:41:33;;;;;;;0.00;0.00;;;7.50;67.00;;;;;;4923769;29;20044;-86
2023/04/28 00:43:59;;;;;;;0.00;0.00;;;7.40;70.70;;;;;;4891552;29;20048;-86
2023/04/28 00:46:32;;;;;;;1.20;0.50;;;7.50;70.30;;;;;;4938958;29;20066;-86
2023/04/28 00:49:00;;;;;;;1.48;0.52;;;7.40;71.50;;;;;;4907035;29;20043;-87
2023/04/28 00:51:27;;;;;;;0.20;0.20;;;7.40;70.70;;;;;;4907446;29;20052;-86
2023/04/28 00:53:58;;;;;;;0.00;0.00;;;7.40;74.20;;;;;;4923541;29;20118;-86
2023/04/28 00:56:29;;;;;;;0.03;0.03;;;7.40;72.30;;;;;;4922583;29;20464;-86
2023/04/28 00:58:57;;;;;;;0.20;0.20;;;7.40;70.30;;;;;;4922941;29;20051;-87
2023/04/28 01:01:26;;;;;;;0.10;0.10;;;7.30;72.30;;;;;;4907079;29;20503;-86
2023/04/28 01:03:55;;;;;;;1.60;0.28;;;7.30;72.20;;;;;;4922858;29;20123;-86
2023/04/28 01:06:24;;;;;;;0.50;0.20;;;7.30;73.00;;;;;;4907492;29;20047;-87
2023/04/28 01:08:59;;;;;;;0.90;0.03;;;7.60;70.30;;;;;;4906192;29;20047;-86
2023/04/28 01:11:29;;;;;;;0.10;0.10;;;7.30;70.70;;;;;;4923316;29;20055;-86
2023/04/28 01:13:56;;;;;;;0.20;0.17;;;7.40;76.00;;;;;;4907643;29;20051;-87
2023/04/28 01:16:31;;;;;;;0.00;0.00;;;7.30;74.30;;;;;;4922622;29;20056;-87
2023/04/28 01:18:59;;;;;;;4.28;0.63;;;7.30;75.20;;;;;;4923462;29;20090;-86
2023/04/28 01:21:35;;;;;;;0.40;0.00;;;7.20;74.80;;;;;;4923547;29;20048;-86
2023/04/28 01:24:04;;;;;;;1.75;0.10;;;7.20;74.60;;;;;;4906306;29;20048;-86
2023/04/28 01:26:43;;;;;;;;;;;;;;;;;;;;;
2023/04/28 01:29:09;;;;;;;0.00;0.00;;;7.20;68.10;;;;;;4921642;29;20050;-86
2023/04/28 01:31:35;;;;;;;0.55;0.55;;;7.20;71.50;;;;;;4921706;29;20048;-87
2023/04/28 01:34:01;;;;;;;0.00;0.00;;;7.20;74.00;;;;;;4921523;29;20052;-87
2023/04/28 01:36:29;;;;;;;0.63;0.20;;;7.30;69.30;;;;;;4922596;29;20079;-87
2023/04/28 01:38:58;;;;;;;1.45;1.08;;;7.20;72.40;;;;;;4906976;29;20094;-86
2023/04/28 01:41:23;;;;;;;0.28;0.20;;;7.20;72.20;;;;;;4922327;29;20052;-87
2023/04/28 01:43:52;;;;;;;0.17;0.17;;;7.20;69.80;;;;;;4922804;29;20111;-86
2023/04/28 01:46:18;;;;;;;0.20;0.15;;;7.20;65.70;;;;;;4922060;29;20051;-87
2023/04/28 01:48:46;;;;;;;3.30;0.65;;;7.20;64.80;;;;;;4921626;29;20043;-86
2023/04/28 01:51:12;;;;;;;0.00;0.00;;;7.20;71.80;;;;;;4921589;29;20047;-86
2023/04/28 01:53:37;;;;;;;0.70;0.40;;;7.20;69.40;;;;;;4921583;29;20064;-86
2023/04/28 01:56:03;;;;;;;1.35;0.47;;;7.20;67.20;;;;;;4921481;29;20050;-86
2023/04/28 01:58:32;;;;;;;0.00;0.00;;;7.20;65.20;;;;;;4922743;29;20051;-86
2023/04/28 02:01:00;;;;;;;0.20;0.20;;;7.20;67.60;;;;;;4921770;29;20056;-87
2023/04/28 02:03:28;;;;;;;2.55;0.22;;;7.20;67.90;;;;;;4922364;29;20059;-87
2023/04/28 02:05:56;;;;;;;0.00;0.00;;;7.20;69.60;;;;;;4907088;29;20110;-86
2023/04/28 02:08:30;;;;;;;0.28;0.10;;;7.20;68.50;;;;;;4906264;29;20043;-86
2023/04/28 02:11:00;;;;;;;0.82;0.22;;;7.20;70.10;;;;;;4921592;29;20410;-87
2023/04/28 02:13:28;;;;;;;2.30;0.47;;;7.10;65.80;;;;;;4937368;29;20052;-86
2023/04/28 02:16:00;;;;;;;0.15;0.15;;;7.10;65.50;;;;;;4922669;29;20456;-86
2023/04/28 02:18:29;;;;;;;0.00;0.00;;;7.20;66.10;;;;;;4921517;29;20047;-86
2023/04/28 02:21:00;;;;;;;1.58;0.22;;;7.10;63.10;;;;;;4922101;29;20047;-87
2023/04/28 02:23:28;;;;;;;0.05;0.00;;;7.10;64.60;;;;;;4906645;29;20114;-87
2023/04/28 02:26:02;;;;;;;0.35;0.25;;;7.10;66.80;;;;;;4905463;29;20086;-86
2023/04/28 02:28:29;;;;;;;0.17;0.17;;;7.10;65.40;;;;;;4937566;29;20090;-87
2023/04/28 02:31:08;;;;;;;5.78;0.30;;;7.00;63.50;;;;;;4921281;29;20055;-87
2023/04/28 02:33:34;;;;;;;0.20;0.20;;;7.00;61.40;;;;;;4921254;29;20047;-87
2023/04/28 02:36:01;;;;;;;0.20;0.20;;;6.90;62.20;;;;;;4921284;29;20111;-87
2023/04/28 02:38:30;;;;;;;0.60;0.15;;;6.90;61.30;;;;;;4921171;29;20048;-86
2023/04/28 02:41:10;;;;;;;1.42;0.52;;;6.90;63.70;;;;;;4921785;29;20436;-87
2023/04/28 02:43:36;;;;;;;0.10;0.10;;;6.90;63.50;;;;;;4936671;29;20139;-87
2023/04/28 02:46:05;;;;;;;0.40;0.40;;;6.90;67.90;;;;;;4920170;29;20051;-87
2023/04/28 02:48:34;;;;;;;2.28;0.80;;;6.90;66.70;;;;;;4920126;29;20134;-87
2023/04/28 02:51:04;;;;;;;0.00;0.00;;;7.00;66.20;;;;;;4920911;29;20393;-86
2023/04/28 02:53:30;;;;;;;0.28;0.15;;;6.80;65.10;;;;;;4920611;29;20377;-86
2023/04/28 02:55:55;;;;;;;0.47;0.20;;;7.30;66.50;;;;;;4920804;29;20043;-86
2023/04/28 02:58:21;;;;;;;0.00;0.00;;;6.90;64.80;;;;;;4905099;29;20047;-86
2023/04/28 03:00:47;;;;;;;0.00;0.00;;;6.90;63.80;;;;;;4905328;29;20059;-85
2023/04/28 03:03:13;;;;;;;0.10;0.00;;;7.00;60.40;;;;;;4920125;29;20055;-86
2023/04/28 03:05:39;;;;;;;0.00;0.00;;;6.90;63.00;;;;;;4905710;29;20052;-87
2023/04/28 03:08:07;;;;;;;0.03;0.03;;;6.90;61.30;;;;;;4920631;29;20115;-87
2023/04/28 03:10:38;;;;;;;0.22;0.22;;;6.90;65.30;;;;;;4920607;29;20071;-86
2023/04/28 03:13:07;;;;;;;0.15;0.15;;;6.90;64.20;;;;;;4920783;29;20054;-86
2023/04/28 03:15:42;;;;;;;1.20;0.08;;;6.90;64.80;;;;;;4936782;29;20044;-85
2023/04/28 03:18:08;;;;;;;0.00;0.00;;;6.90;64.30;;;;;;4921305;29;20392;-85
2023/04/28 03:20:36;;;;;;;0.30;0.00;;;6.90;62.30;;;;;;4920540;29;20057;-85
2023/04/28 03:23:04;;;;;;;0.00;0.00;;;6.90;61.20;;;;;;4921013;29;20059;-86
2023/04/28 03:25:30;;;;;;;0.25;0.25;;;6.90;60.10;;;;;;4904619;29;20047;-86
2023/04/28 03:28:00;;;;;;;0.45;0.00;;;6.80;61.30;;;;;;4919764;29;20066;-85
2023/04/28 03:30:29;;;;;;;0.00;0.00;;;6.90;60.70;;;;;;4920798;29;20386;-85
2023/04/28 03:32:58;;;;;;;0.10;0.10;;;6.90;60.50;;;;;;4919943;29;20173;-86
2023/04/28 03:35:24;;;;;;;0.15;0.15;;;6.90;63.10;;;;;;4920086;29;20054;-86
2023/04/28 03:37:53;;;;;;;0.10;0.10;;;6.90;62.30;;;;;;4920330;29;20044;-86
2023/04/28 03:40:18;;;;;;;0.10;0.10;;;6.80;61.30;;;;;;4904866;29;20466;-86
2023/04/28 03:42:44;;;;;;;0.52;0.38;;;6.90;57.70;;;;;;4920868;29;20086;-86
2023/04/28 03:45:10;;;;;;;0.30;0.30;;;6.90;59.00;;;;;;4936300;29;20111;-85
2023/04/28 03:47:38;;;;;;;0.55;0.45;;;6.90;57.80;;;;;;4920895;29;20079;-86
2023/04/28 03:50:05;;;;;;;3.30;0.77;;;6.90;58.30;;;;;;4919876;29;20142;-86
2023/04/28 03:52:38;;;;;;;0.10;0.10;;;6.80;58.20;;;;;;4919856;29;20440;-86
2023/04/28 03:55:04;;;;;;;0.30;0.30;;;6.80;59.20;;;;;;4920929;29;20059;-86
2023/04/28 03:57:33;;;;;;;0.05;0.05;;;6.80;61.00;;;;;;4908069;29;20058;-85
2023/04/28 03:59:59;;;;;;;3.47;0.20;;;6.80;62.70;;;;;;4908568;29;20051;-85
2023/04/28 04:02:24;;;;;;;0.13;0.03;;;6.80;62.80;;;;;;4939665;29;20071;-86
2023/04/28 04:04:51;;;;;;;0.30;0.20;;;6.90;59.50;;;;;;4924426;29;20070;-86
2023/04/28 04:07:16;;;;;;;0.05;0.05;;;6.80;61.60;;;;;;4923675;29;20052;-86
2023/04/28 04:09:47;;;;;;;0.30;0.30;;;6.80;60.90;;;;;;4916510;29;20063;-86
2023/04/28 04:12:15;;;;;;;0.00;0.00;;;6.80;64.60;;;;;;4908949;29;20059;-85
2023/04/28 04:14:43;;;;;;;0.03;0.03;;;6.80;60.60;;;;;;4891840;29;20479;-85
2023/04/28 04:17:11;;;;;;;0.20;0.10;;;6.90;60.00;;;;;;4940369;29;20099;-85
2023/04/28 04:19:36;;;;;;;0.00;0.00;;;6.80;60.30;;;;;;4923761;29;20130;-86
2023/04/28 04:22:05;;;;;;;0.15;0.00;;;6.80;59.90;;;;;;4923591;29;20211;-85
2023/04/28 04:24:31;;;;;;;1.42;0.05;;;6.80;56.80;;;;;;4923778;29;20062;-86
2023/04/28 04:27:01;;;;;;;0.28;0.05;;;6.90;56.90;;;;;;4923559;29;20479;-86
2023/04/28 04:29:30;;;;;;;0.52;0.32;;;6.80;58.70;;;;;;4907912;29;20156;-86
2023/04/28 04:32:05;;;;;;;0.08;0.08;;;7.10;62.80;;;;;;4923054;29;20040;-86
2023/04/28 04:34:31;;;;;;;0.20;0.10;;;6.80;63.50;;;;;;4923511;29;20051;-84
2023/04/28 04:36:57;;;;;;;0.13;0.05;;;6.90;62.70;;;;;;4922899;29;20079;-85
2023/04/28 04:39:23;;;;;;;0.10;0.08;;;6.90;62.00;;;;;;4922942;29;20047;-85
2023/04/28 04:41:49;;;;;;;0.30;0.10;;;6.90;63.30;;;;;;4923664;29;20460;-84
2023/04/28 04:44:14;;;;;;;0.22;0.22;;;6.90;62.00;;;;;;4922973;29;20607;-85
2023/04/28 04:46:49;;;;;;;4.20;0.13;;;6.90;58.60;;;;;;4922776;29;20051;-85
2023/04/28 04:49:15;;;;;;;0.00;0.00;;;7.00;60.10;;;;;;4922380;29;20483;-85
2023/04/28 04:51:40;;;;;;;0.70;0.70;;;7.00;59.90;;;;;;4923573;29;20086;-85
2023/04/28 04:54:07;;;;;;;0.00;0.00;;;6.90;60.70;;;;;;4922916;29;20543;-85
2023/04/28 04:56:42;;;;;;;0.00;0.00;;;6.90;55.90;;;;;;4923026;29;20055;-86
2023/04/28 04:59:08;;;;;;;0.10;0.10;;;6.90;57.70;;;;;;4923145;29;20103;-85
2023/04/28 05:01:34;;;;;;;0.60;0.60;;;7.00;53.60;;;;;;4922159;29;20044;-84
2023/04/28 05:04:00;;;;;;;0.05;0.05;;;7.00;56.70;;;;;;4907289;29;20445;-84
2023/04/28 05:06:26;;;;;;;0.15;0.15;;;7.00;56.70;;;;;;4922679;29;20130;-85
2023/04/28 05:08:55;;;;;;;0.43;0.30;;;7.00;57.60;;;;;;4921076;29;20496;-85
2023/04/28 05:11:21;;;;;;;0.35;0.35;;;7.10;59.30;;;;;;4922112;29;20095;-85
2023/04/28 05:13:46;;;;;;;2.38;0.70;;;7.10;54.60;;;;;;4923329;29;20040;-85
2023/04/28 05:16:12;;;;;;;0.30;0.10;;;7.10;57.80;;;;;;4922462;29;20053;-85
2023/04/28 05:18:38;;;;;;;0.25;0.10;;;7.10;59.40;;;;;;4907658;29;20058;-85
2023/04/28 05:21:05;;;;;;;0.20;0.20;;;7.20;59.70;;;;;;4922429;29;20048;-86
2023/04/28 05:23:30;;;;;;;2.40;0.00;;;7.10;60.20;;;;;;4906718;29;20055;-85
2023/04/28 05:25:57;;;;;;;0.00;0.00;;;7.20;61.60;;;;;;4907020;29;20055;-86
2023/04/28 05:28:23;;;;;;;0.17;0.10;;;7.20;56.20;;;;;;4906587;29;20082;-85
2023/04/28 05:30:52;;;;;;;0.17;0.17;;;7.20;63.00;;;;;;4906294;29;20103;-86
2023/04/28 05:33:23;;;;;;;0.30;0.30;;;7.30;56.50;;;;;;4906623;29;20416;-85
2023/04/28 05:35:49;;;;;;;0.20;0.00;;;7.30;54.60;;;;;;4921944;29;20050;-85
2023/04/28 05:38:17;;;;;;;1.95;0.57;;;7.30;55.70;;;;;;4905823;29;20131;-85
2023/04/28 05:40:43;;;;;;;0.65;0.65;;;7.50;58.50;;;;;;4921897;29;20493;-85
2023/04/28 05:43:13;;;;;;;1.90;0.38;;;7.30;59.30;;;;;;4921671;29;20051;-85
2023/04/28 05:45:42;;;;;;;0.20;0.20;;;7.30;61.80;;;;;;4938363;29;20113;-86
2023/04/28 05:48:11;;;;;;;0.10;0.10;;;7.40;65.70;;;;;;4921587;29;20134;-86
2023/04/28 05:50:37;;;;;;;0.40;0.30;;;7.40;65.40;;;;;;4937686;29;20135;-87
2023/04/28 05:53:06;;;;;;;0.00;0.00;;;7.40;55.60;;;;;;4922454;29;20138;-87
2023/04/28 05:55:35;;;;;;;0.25;0.25;;;7.50;58.90;;;;;;4890277;29;20044;-87
2023/04/28 05:58:08;;;;;;;0.20;0.20;;;7.50;65.50;;;;;;4906105;29;20492;-86
2023/04/28 06:00:38;;;;;;;3.13;1.10;;;7.60;61.80;;;;;;4906429;29;20139;-87
2023/04/28 06:03:13;;;;;;;2.55;0.30;;;7.60;65.30;;;;;;4921304;29;20071;-87
2023/04/28 06:05:41;;;;;;;;;;;7.70;62.90;;;;;;4922260;29;20043;-86
2023/04/28 06:08:10;;;;;;;0.00;0.00;;;7.70;57.00;;;;;;4921636;29;19923;-86
2023/04/28 06:10:36;;;;;;;0.70;0.00;;;7.80;57.30;;;;;;4922729;29;20063;-85
2023/04/28 06:13:10;;;;;;;0.05;0.05;;;7.80;55.20;;;;;;4905250;29;20070;-87
2023/04/28 06:15:38;;;;;;;0.10;0.10;;;7.80;54.70;;;;;;4889499;29;20082;-87
2023/04/28 06:18:08;;;;;;;0.00;0.00;;;8.00;60.10;;;;;;4921188;29;20048;-88
2023/04/28 06:20:35;;;;;;;0.00;0.00;;;7.90;57.20;;;;;;4920679;29;20052;-86
2023/04/28 06:23:02;;;;;;;0.13;0.10;;;7.90;54.40;;;;;;4921502;29;20126;-86
2023/04/28 06:25:33;;;;;;;1.17;0.25;;;7.90;51.80;;;;;;4921243;29;20048;-86
2023/04/28 06:27:59;;;;;;;2.38;0.40;;;7.90;52.30;;;;;;4921373;29;20051;-86
2023/04/28 06:30:38;;;;;;;0.10;0.00;;;8.00;51.80;;;;;;4921237;29;20052;-85
2023/04/28 06:33:06;;;;;;;0.43;0.22;;;8.00;50.00;;;;;;4905902;29;20392;-86
2023/04/28 06:35:37;;;;;;;0.65;0.13;;;8.10;52.30;;;;;;4921532;29;20369;-86
2023/04/28 06:38:05;;;;;;;0.00;0.00;;;8.10;49.10;;;;;;4906340;29;20051;-86
2023/04/28 06:40:40;;;;;;;4.18;0.40;;;8.10;48.90;;;;;;4937390;29;20198;-86
2023/04/28 06:43:06;;;;;;;0.22;0.22;;;8.10;49.40;;;;;;4921227;29;20051;-86
2023/04/28 06:45:34;;;;;;;0.10;0.10;;;8.10;46.70;;;;;;4921203;29;20060;-86
2023/04/28 06:48:00;;;;;;;0.10;0.10;;;8.10;46.90;;;;;;4920876;29;20488;-87
2023/04/28 06:50:28;;;;;;;0.40;0.40;;;8.20;48.00;;;;;;4920391;29;20058;-86
2023/04/28 06:52:57;;;;;;;1.33;0.28;;;8.20;45.80;;;;;;4904456;29;20107;-86
2023/04/28 06:55:23;;;;;;;0.00;0.00;;;8.30;43.90;;;;;;4921524;29;20584;-86
2023/04/28 06:57:59;;;;;;;;;;;;;;;;;;;;;
2023/04/28 07:00:25;;;;;;;0.32;0.32;;;8.40;50.30;;;;;;4923256;29;20055;-86
2023/04/28 07:02:51;;;;;;;0.00;0.00;;;8.40;50.60;;;;;;4923747;29;20059;-87
2023/04/28 07:05:17;;;;;;;0.17;0.17;;;8.50;41.70;;;;;;4922283;29;20070;-86
2023/04/28 07:07:54;;;;;;;0.32;0.32;;;8.60;45.70;;;;;;4920832;29;20480;-86
2023/04/28 07:10:29;;;;;;;4.28;0.43;;;8.60;44.10;;;;;;4913488;29;20389;-87
2023/04/28 07:12:54;;;;;;;;;;;8.70;42.90;;;;;;4906388;29;20056;-86
2023/04/28 07:15:23;;;;;;;0.10;0.10;;;8.70;41.10;;;;;;4920077;29;20343;-86
2023/04/28 07:17:52;;;;;;;0.00;0.00;;;8.80;45.40;;;;;;4921168;29;20044;-86
2023/04/28 07:20:18;;;;;;;0.17;0.10;;;8.80;45.70;;;;;;4935969;29;20050;-86
2023/04/28 07:22:53;;;;;;;0.00;0.00;;;8.90;43.90;;;;;;4920094;29;20043;-86
2023/04/28 07:25:19;;;;;;;0.17;0.03;;;9.00;33.70;;;;;;4921056;29;20052;-86
2023/04/28 07:27:45;;;;;;;0.00;0.00;;;9.00;29.60;;;;;;4935644;29;20051;-86
2023/04/28 07:30:14;;;;;;;0.00;0.00;;;9.00;30.50;;;;;;4920590;29;20048;-86
2023/04/28 07:32:40;;;;;;;0.95;0.55;;;9.00;32.60;;;;;;4921389;29;20051;-86
2023/04/28 07:35:07;;;;;;;0.90;0.25;;;9.00;30.30;;;;;;4935951;29;20123;-86
2023/04/28 07:37:35;;;;;;;0.20;0.20;;;9.00;31.60;;;;;;4920202;29;20055;-87
2023/04/28 07:40:07;;;;;;;0.10;0.05;;;9.00;29.30;;;;;;4920526;29;20051;-86
2023/04/28 07:42:33;;;;;;;0.00;0.00;;;9.10;36.20;;;;;;4936503;29;20099;-86
2023/04/28 07:44:59;;;;;;;0.63;0.15;;;9.30;36.90;;;;;;4936128;29;20044;-86
2023/04/28 07:47:26;;;;;;;0.10;0.08;;;9.40;28.10;;;;;;4920427;29;20054;-86
2023/04/28 07:49:52;;;;;;;0.10;0.10;;;9.50;29.70;;;;;;4904489;29;20047;-86
2023/04/28 07:52:20;;;;;;;0.10;0.10;;;9.70;25.70;;;;;;4904367;29;20055;-86
2023/04/28 07:54:45;;;;;;;0.90;0.20;;;9.80;28.20;;;;;;4920412;29;20555;-86
2023/04/28 07:57:11;;;;;;;0.43;0.43;;;9.90;21.50;;;;;;4935900;29;20052;-86
2023/04/28 07:59:43;;;;;;;0.00;0.00;;;10.10;28.50;;;;;;4920423;29;20151;-86
2023/04/28 08:02:14;;;;;;;0.00;0.00;;;10.10;10.70;;;;;;4921346;29;20087;-86
2023/04/28 08:04:40;;;;;;;0.00;0.00;;;10.10;11.00;;;;;;4920759;29;20111;-87
2023/04/28 08:07:08;;;;;;;0.00;0.00;;;10.20;17.50;;;;;;4919825;29;20050;-86
2023/04/28 08:09:39;;;;;;;0.10;0.10;;;10.20;16.90;;;;;;4920166;29;20091;-86
2023/04/28 08:12:05;;;;;;;1.05;1.00;;;10.20;10.40;;;;;;4905234;29;20539;-86
2023/04/28 08:14:34;;;;;;;0.52;0.25;;;10.30;9.10;;;;;;4935786;29;20048;-86
2023/04/28 08:17:00;;;;;;;0.10;0.10;;;10.40;11.10;;;;;;4919108;29;20050;-86
2023/04/28 08:19:26;;;;;;;0.00;0.00;;;10.50;10.90;;;;;;4919664;29;20051;-86
2023/04/28 08:21:54;;;;;;;0.30;0.30;;;10.60;5.60;;;;;;4919765;29;20111;-86
2023/04/28 08:24:23;;;;;;;0.50;0.50;;;10.60;1.90;;;;;;4919761;29;20501;-86
2023/04/28 08:26:52;;;;;;;9.15;0.95;;;10.60;8.10;;;;;;4904809;29;20048;-86
2023/04/28 08:29:17;;;;;;;0.00;0.00;;;10.60;4.50;;;;;;4919829;29;20087;-86
2023/04/28 08:31:43;;;;;;;0.05;0.05;;;10.70;17.30;;;;;;4919892;29;20078;-86
2023/04/28 08:34:09;;;;;;;0.30;0.05;;;10.80;10.30;;;;;;4919746;29;20083;-86
2023/04/28 08:36:35;;;;;;;0.00;0.00;;;11.00;10.40;;;;;;4919329;29;20043;-87
2023/04/28 08:39:07;;;;;;;0.00;0.00;;;11.10;15.90;;;;;;4919170;29;20040;-86
2023/04/28 08:41:46;;;;;;;;;;;;;;;;;;;;;
2023/04/28 08:44:12;;;;;;;0.10;0.10;;;11.30;1.10;;;;;;4937922;29;20484;-87
2023/04/28 08:46:46;;;;;;;0.00;0.00;;;11.30;1.00;;;;;;4907268;29;20051;-86
2023/04/28 08:49:18;;;;;;;0.00;0.00;;;11.30;1.00;;;;;;4922757;29;20047;-86
2023/04/28 08:51:56;;;;;;;0.00;0.00;;;11.30;1.30;;;;;;4907524;29;20090;-86
2023/04/28 08:54:24;;;;;;;0.73;0.40;;;11.30;1.00;;;;;;4923849;29;20366;-86
2023/04/28 08:56:51;;;;;;;0.00;0.00;;;11.40;1.30;;;;;;4922989;29;20052;-86
2023/04/28 08:59:17;;;;;;;0.10;0.10;;;11.50;9.40;;;;;;4922608;29;20480;-86
2023/04/28 09:01:46;;;;;;;0.00;0.00;;;11.50;1.00;;;;;;4922262;29;20059;-86
2023/04/28 09:04:13;;;;;;;0.00;0.00;;;11.70;1.00;;;;;;4923395;29;20055;-86
2023/04/28 09:06:41;;;;;;;0.00;0.00;;;11.80;1.00;;;;;;4922131;29;20047;-86
2023/04/28 09:09:30;;;;;;;0.30;0.20;;;11.90;5.50;;;;;;4906800;29;20044;-86
2023/04/28 09:12:01;;;;;;;0.17;0.05;;;12.00;1.00;;;;;;4907017;29;20047;-86
2023/04/28 09:14:28;;;;;;;0.05;0.05;;;12.20;1.00;;;;;;4922015;29;20139;-86
2023/04/28 09:16:54;;;;;;;0.40;0.40;;;12.30;1.00;;;;;;4907013;29;20063;-86
2023/04/28 09:19:20;;;;;;;0.00;0.00;;;12.40;1.00;;;;;;4906994;29;20066;-86
2023/04/28 09:21:55;;;;;;;0.55;0.30;;;12.60;1.00;;;;;;4922157;29;20047;-86
2023/04/28 09:24:39;;;;;;;0.10;0.05;;;12.80;1.00;;;;;;4907253;29;20492;-86
2023/04/28 09:27:09;;;;;;;0.00;0.00;;;12.80;1.00;;;;;;4907044;29;20055;-86
2023/04/28 09:29:36;;;;;;;0.00;0.00;;;12.70;1.00;;;;;;4906432;29;20051;-86
2023/04/28 09:32:19;;;;;;;0.20;0.20;;;12.70;1.00;;;;;;4906910;29;20076;-86
2023/04/28 09:34:50;;;;;;;0.00;0.00;;;12.60;1.00;;;;;;4906418;29;20052;-86
2023/04/28 09:37:16;;;;;;;0.00;0.00;;;12.50;1.00;;;;;;4922058;29;20047;-86
2023/04/28 09:39:53;;;;;;;0.90;0.30;;;12.50;1.00;;;;;;4907039;29;20052;-86
2023/04/28 09:42:35;;;;;;;0.10;0.10;;;12.50;6.80;;;;;;4922442;29;20054;-86
2023/04/28 09:45:06;;;;;;;0.10;0.10;;;12.50;1.00;;;;;;4906918;29;20047;-86
2023/04/28 09:47:34;;;;;;;0.00;0.00;;;12.50;1.00;;;;;;4906651;29;20467;-86
2023/04/28 09:50:13;;;;;;;0.10;0.10;;;12.50;1.00;;;;;;4906760;29;20158;-86
2023/04/28 09:52:44;;;;;;;0.10;0.00;;;12.60;1.00;;;;;;4906236;29;20518;-86
2023/04/28 09:55:11;;;;;;;0.25;0.25;;;12.80;1.00;;;;;;4906911;29;20048;-86
2023/04/28 09:57:40;;;;;;;0.38;0.15;;;12.90;1.00;;;;;;4921242;29;20110;-86
2023/04/28 10:00:07;;;;;;;0.00;0.00;;;13.20;1.00;;;;;;4905938;29;20111;-86
2023/04/28 10:02:35;;;;;;;0.10;0.00;;;13.60;4.80;;;;;;4890176;29;20048;-86
2023/04/28 10:05:02;;;;;;;0.08;0.00;;;14.00;1.00;;;;;;4906032;29;20130;-86
2023/04/28 10:07:29;;;;;;;0.10;0.10;;;14.30;1.00;;;;;;4922166;29;20423;-86
2023/04/28 10:09:57;;;;;;;0.10;0.10;;;14.60;1.00;;;;;;4896074;29;20058;-86
2023/04/28 10:12:23;;;;;;;1.15;0.08;;;14.70;1.00;;;;;;4921931;29;20062;-87
2023/04/28 10:14:53;;;;;;;0.38;0.38;;;14.80;1.00;;;;;;4921617;29;20087;-86
2023/04/28 10:17:21;;;;;;;0.52;0.25;;;14.80;1.00;;;;;;4921558;29;20055;-87
2023/04/28 10:19:51;;;;;;;0.10;0.10;;;14.70;1.00;;;;;;4921776;29;20051;-86
2023/04/28 10:22:32;;;;;;;0.82;0.30;;;14.70;1.00;;;;;;4922168;29;20051;-87
2023/04/28 10:25:13;;;;;;;0.17;0.17;;;14.60;1.00;;;;;;4921426;29;20070;-86
2023/04/28 10:27:41;;;;;;;0.20;0.20;;;14.70;1.00;;;;;;4922308;29;20048;-86
2023/04/28 10:30:16;;;;;;;0.63;0.00;;;14.70;1.00;;;;;;4921791;29;20051;-86
2023/04/28 10:32:44;;;;;;;0.03;0.03;;;14.80;1.00;;;;;;4922290;29;20063;-86
2023/04/28 10:35:34;;;;;;;0.32;0.00;;;14.80;1.00;;;;;;4921429;29;20052;-87
2023/04/28 10:38:12;;;;;;;0.00;0.00;;;14.70;1.00;;;;;;4921812;29;20084;-86
2023/04/28 10:40:51;;;;;;;0.08;0.08;;;14.70;1.00;;;;;;4921114;29;20055;-87
2023/04/28 10:43:31;;;;;;;0.40;0.03;;;14.70;1.00;;;;;;4921756;29;20479;-86
2023/04/28 10:46:00;;;;;;;0.10;0.10;;;14.70;1.00;;;;;;4921555;29;20056;-87
2023/04/28 10:48:25;;;;;;;0.20;0.10;;;14.60;1.00;;;;;;4921121;29;20083;-86
2023/04/28 10:51:16;;;;;;;0.95;0.32;;;14.50;1.00;;;;;;4921052;29;20135;-86
2023/04/28 10:53:47;;;;;;;0.63;0.40;;;14.40;1.00;;;;;;4911054;29;20411;-86
2023/04/28 10:56:23;;;;;;;0.00;0.00;;;14.40;14.30;;;;;;4921422;29;20054;-86
2023/04/28 10:58:53;;;;;;;0.00;0.00;;;14.50;17.40;;;;;;4920605;29;20067;-86
2023/04/28 11:01:25;;;;;;;0.35;0.00;;;14.50;6.80;;;;;;4920209;29;20071;-87
2023/04/28 11:03:58;;;;;;;0.22;0.22;;;14.60;8.80;;;;;;4921949;29;20045;-86
2023/04/28 11:06:30;;;;;;;1.17;0.30;;;14.70;9.30;;;;;;4920626;29;20134;-86
2023/04/28 11:09:01;;;;;;;0.38;0.00;;;14.70;11.50;;;;;;4905709;29;20048;-86
2023/04/28 11:11:41;;;;;;;0.38;0.25;;;14.70;6.00;;;;;;4914487;29;20060;-86
2023/04/28 11:14:19;;;;;;;0.03;0.00;;;14.70;15.60;;;;;;4920833;29;20444;-86
2023/04/28 11:17:01;;;;;;;0.00;0.00;;;14.70;8.90;;;;;;4904939;29;20056;-86
2023/04/28 11:19:35;;;;;;;0.38;0.03;;;14.80;14.90;;;;;;4905170;29;20147;-85
2023/04/28 11:22:12;;;;;;;0.20;0.20;;;14.90;23.40;;;;;;4905471;29;20059;-86
2023/04/28 11:24:38;;;;;;;0.10;0.00;;;15.00;7.50;;;;;;4904939;29;20295;-86
2023/04/28 11:27:07;;;;;;;0.00;0.00;;;15.20;10.50;;;;;;4920861;29;20055;-86
2023/04/28 11:29:40;;;;;;;0.38;0.38;;;15.20;7.50;;;;;;4920306;29;20047;-86
2023/04/28 11:32:08;;;;;;;0.55;0.28;;;15.20;3.90;;;;;;4904803;29;20083;-86
2023/04/28 11:34:37;;;;;;;0.00;0.00;;;15.00;7.70;;;;;;4889083;29;20148;-86
2023/04/28 11:37:02;;;;;;;0.00;0.00;;;15.00;10.90;;;;;;4920560;29;20540;-85
2023/04/28 11:39:36;;;;;;;0.20;0.00;;;15.10;18.40;;;;;;4920358;29;20051;-86
2023/04/28 11:42:09;;;;;;;0.00;0.00;;;15.10;14.40;;;;;;4906262;29;20052;-87
2023/04/28 11:44:35;;;;;;;1.73;0.20;;;15.00;16.50;;;;;;4905261;29;20130;-86
2023/04/28 11:47:02;;;;;;;0.25;0.20;;;15.00;33.50;;;;;;4919872;29;20486;-86
2023/04/28 11:49:33;;;;;;;0.10;0.10;;;15.00;25.70;;;;;;4919835;29;20051;-86
2023/04/28 11:52:06;;;;;;;0.00;0.00;;;15.10;38.80;;;;;;4904287;29;20111;-86
2023/04/28 11:54:37;;;;;;;0.10;0.10;;;15.20;33.10;;;;;;4904832;29;20047;-86
2023/04/28 11:57:15;;;;;;;0.10;0.08;;;15.20;27.20;;;;;;4905664;29;20058;-86
2023/04/28 11:59:44;;;;;;;0.10;0.10;;;15.20;32.70;;;;;;4906181;29;20051;-86
2023/04/28 12:02:11;;;;;;;0.00;0.00;;;15.20;24.60;;;;;;4921272;29;20079;-86
2023/04/28 12:04:37;;;;;;;0.20;0.10;;;15.10;26.10;;;;;;4920862;29;20052;-86
2023/04/28 12:07:12;;;;;;;0.90;0.40;;;14.90;33.70;;;;;;4904319;29;20082;-86
2023/04/28 12:10:08;;;;;;;0.30;0.30;;;14.80;42.50;;;;;;4903516;29;20538;-86
2023/04/28 12:12:36;;;;;;;0.30;0.30;;;14.70;46.30;;;;;;4917626;29;20067;-86
2023/04/28 12:15:08;;;;;;;0.35;0.35;;;14.80;52.40;;;;;;4934792;29;20531;-85
2023/04/28 12:17:37;;;;;;;0.00;0.00;;;14.70;60.30;;;;;;4921699;29;20130;-86
2023/04/28 12:20:06;;;;;;;0.10;0.08;;;14.60;64.70;;;;;;4923393;29;20051;-86
2023/04/28 12:22:52;;;;;;;0.15;0.13;;;14.50;64.20;;;;;;4923518;29;20191;-85
2023/04/28 12:25:19;;;;;;;0.00;0.00;;;14.40;73.40;;;;;;4923283;29;20063;-86
2023/04/28 12:28:05;;;;;;;0.13;0.10;;;14.40;73.50;;;;;;4924121;29;20082;-86
2023/04/28 12:30:40;;;;;;;2.38;0.57;;;14.40;83.20;;;;;;4923786;29;20134;-86
2023/04/28 12:33:28;;;;;;;0.20;0.20;;;14.30;85.60;;;;;;4941443;29;20164;-86
2023/04/28 12:35:58;;;;;;;0.20;0.20;;;14.20;80.00;;;;;;4924010;29;20095;-86
2023/04/28 12:38:27;;;;;;;0.15;0.10;;;14.20;84.80;;;;;;4923928;29;20087;-86
2023/04/28 12:40:55;;;;;;;0.10;0.10;;;14.20;90.80;;;;;;4939086;29;20051;-85
2023/04/28 12:43:22;;;;;;;2.35;0.57;;;14.20;92.20;;;;;;4923271;29;20135;-85
2023/04/28 12:45:53;;;;;;;3.97;0.10;;;14.30;92.30;;;;;;4924129;29;20056;-85
2023/04/28 12:48:23;;;;;;;0.00;0.00;;;14.30;92.30;;;;;;4923913;29;20641;-85
2023/04/28 12:50:49;;;;;;;0.28;0.20;;;14.30;92.30;;;;;;4940000;29;20044;-86
2023/04/28 12:53:15;;;;;;;0.10;0.10;;;14.20;94.30;;;;;;4910492;29;20052;-85
2023/04/28 12:55:41;;;;;;;0.82;0.40;;;14.20;95.30;;;;;;4926667;29;20048;-85
2023/04/28 12:58:07;;;;;;;0.38;0.10;;;14.20;95.50;;;;;;4926809;29;20044;-86
2023/04/28 13:00:33;;;;;;;0.20;0.20;;;14.10;95.00;;;;;;4927433;29;20054;-85
2023/04/28 13:03:01;;;;;;;3.72;1.00;;;14.10;95.70;;;;;;4925640;29;20047;-86
2023/04/28 13:05:27;;;;;;;0.05;0.03;;;14.10;95.60;;;;;;4925625;29;20043;-85
2023/04/28 13:07:53;;;;;;;0.03;0.03;;;14.00;96.00;;;;;;4923598;29;20065;-86
2023/04/28 13:10:22;;;;;;;0.28;0.28;;;14.00;96.80;;;;;;4923223;29;20047;-85
2023/04/28 13:12:49;;;;;;;0.10;0.10;;;14.00;96.60;;;;;;4922864;29;20067;-86